sensor_id;sensor_type;location;lat;lon;timestamp;P1;durP1;ratioP1;P2;durP2;ratioP2
19095;SDS011;9680;52.520;13.332;2023-11-21T00:01:03;9.73;;;4.70;;
19095;SDS011;9680;52.520;13.332;2023-11-21T00:03:33;13.70;;;4.90;;
19095;SDS011;9680;52.520;13.332;2023-11-21T00:06:00;13.47;;;5.40;;
19095;SDS011;9680;52.520;13.332;2023-11-21T00:08:27;17.03;;;6.17;;
19095;SDS011;9680;52.520;13.332;2023-11-21T00:10:55;17.07;;;6.67;;
19095;SDS011;9680;52.520;13.332;2023-11-21T00:13:21;14.67;;;6.13;;
19095;SDS011;9680;52.520;13.332;2023-11-21T00:15:48;18.00;;;7.40;;
19095;SDS011;9680;52.520;13.332;2023-11-21T00:18:16;21.97;;;7.93;;
19095;SDS011;9680;52.520;13.332;2023-11-21T00:20:43;22.50;;;8.20;;
19095;SDS011;9680;52.520;13.332;2023-11-21T00:23:10;18.63;;;7.87;;
19095;SDS011;9680;52.520;13.332;2023-11-21T00:25:37;24.03;;;8.97;;
19095;SDS011;9680;52.520;13.332;2023-11-21T00:28:05;25.13;;;9.33;;
19095;SDS011;9680;52.520;13.332;2023-11-21T00:30:32;24.10;;;9.57;;
19095;SDS011;9680;52.520;13.332;2023-11-21T00:32:59;28.87;;;9.50;;
19095;SDS011;9680;52.520;13.332;2023-11-21T00:35:27;31.20;;;9.03;;
19095;SDS011;9680;52.520;13.332;2023-11-21T00:37:53;32.70;;;10.17;;
19095;SDS011;9680;52.520;13.332;2023-11-21T00:40:28;37.47;;;10.27;;
19095;SDS011;9680;52.520;13.332;2023-11-21T00:42:56;33.47;;;10.40;;
19095;SDS011;9680;52.520;13.332;2023-11-21T00:45:23;32.57;;;10.17;;
19095;SDS011;9680;52.520;13.332;2023-11-21T00:47:50;38.53;;;10.63;;
19095;SDS011;9680;52.520;13.332;2023-11-21T00:50:17;34.83;;;9.93;;
19095;SDS011;9680;52.520;13.332;2023-11-21T00:52:45;39.63;;;10.70;;
19095;SDS011;9680;52.520;13.332;2023-11-21T00:55:12;37.37;;;11.20;;
19095;SDS011;9680;52.520;13.332;2023-11-21T00:57:39;36.73;;;11.07;;
19095;SDS011;9680;52.520;13.332;2023-11-21T01:00:06;36.63;;;11.63;;
19095;SDS011;9680;52.520;13.332;2023-11-21T01:02:38;45.43;;;11.97;;
19095;SDS011;9680;52.520;13.332;2023-11-21T01:05:05;44.90;;;12.03;;
19095;SDS011;9680;52.520;13.332;2023-11-21T01:07:34;41.73;;;12.37;;
19095;SDS011;9680;52.520;13.332;2023-11-21T01:10:03;41.33;;;12.27;;
19095;SDS011;9680;52.520;13.332;2023-11-21T01:12:32;40.97;;;12.03;;
19095;SDS011;9680;52.520;13.332;2023-11-21T01:15:00;48.83;;;12.73;;
19095;SDS011;9680;52.520;13.332;2023-11-21T01:17:27;45.37;;;13.07;;
19095;SDS011;9680;52.520;13.332;2023-11-21T01:19:54;44.97;;;12.77;;
19095;SDS011;9680;52.520;13.332;2023-11-21T01:22:21;47.90;;;12.47;;
19095;SDS011;9680;52.520;13.332;2023-11-21T01:24:51;44.27;;;12.53;;
19095;SDS011;9680;52.520;13.332;2023-11-21T01:27:19;45.20;;;13.10;;
19095;SDS011;9680;52.520;13.332;2023-11-21T01:29:46;49.37;;;12.27;;
19095;SDS011;9680;52.520;13.332;2023-11-21T01:32:12;45.57;;;12.70;;
19095;SDS011;9680;52.520;13.332;2023-11-21T01:34:39;46.43;;;12.23;;
19095;SDS011;9680;52.520;13.332;2023-11-21T01:37:06;42.90;;;11.70;;
19095;SDS011;9680;52.520;13.332;2023-11-21T01:39:33;40.50;;;11.50;;
19095;SDS011;9680;52.520;13.332;2023-11-21T01:42:00;33.97;;;9.63;;
19095;SDS011;9680;52.520;13.332;2023-11-21T01:44:28;34.77;;;9.87;;
19095;SDS011;9680;52.520;13.332;2023-11-21T01:46:55;35.13;;;9.60;;
19095;SDS011;9680;52.520;13.332;2023-11-21T01:49:23;42.47;;;10.77;;
19095;SDS011;9680;52.520;13.332;2023-11-21T01:51:50;40.27;;;10.80;;
19095;SDS011;9680;52.520;13.332;2023-11-21T01:54:17;37.10;;;10.03;;
19095;SDS011;9680;52.520;13.332;2023-11-21T01:56:46;37.67;;;10.27;;
19095;SDS011;9680;52.520;13.332;2023-11-21T01:59:14;41.37;;;9.77;;
19095;SDS011;9680;52.520;13.332;2023-11-21T02:01:47;33.23;;;9.70;;
19095;SDS011;9680;52.520;13.332;2023-11-21T02:04:15;32.00;;;8.80;;
19095;SDS011;9680;52.520;13.332;2023-11-21T02:06:42;38.23;;;9.47;;
19095;SDS011;9680;52.520;13.332;2023-11-21T02:09:09;30.23;;;8.60;;
19095;SDS011;9680;52.520;13.332;2023-11-21T02:11:40;30.03;;;8.27;;
19095;SDS011;9680;52.520;13.332;2023-11-21T02:14:07;30.73;;;8.93;;
19095;SDS011;9680;52.520;13.332;2023-11-21T02:16:34;27.77;;;7.87;;
19095;SDS011;9680;52.520;13.332;2023-11-21T02:19:03;29.90;;;7.50;;
19095;SDS011;9680;52.520;13.332;2023-11-21T02:21:34;20.20;;;6.77;;
19095;SDS011;9680;52.520;13.332;2023-11-21T02:24:07;17.67;;;6.83;;
19095;SDS011;9680;52.520;13.332;2023-11-21T02:26:35;20.20;;;6.93;;
19095;SDS011;9680;52.520;13.332;2023-11-21T02:29:02;17.90;;;6.50;;
19095;SDS011;9680;52.520;13.332;2023-11-21T02:31:29;18.33;;;6.10;;
19095;SDS011;9680;52.520;13.332;2023-11-21T02:33:58;16.93;;;6.23;;
19095;SDS011;9680;52.520;13.332;2023-11-21T02:36:24;16.87;;;5.80;;
19095;SDS011;9680;52.520;13.332;2023-11-21T02:38:51;16.37;;;6.40;;
19095;SDS011;9680;52.520;13.332;2023-11-21T02:41:19;14.93;;;5.90;;
19095;SDS011;9680;52.520;13.332;2023-11-21T02:43:46;15.70;;;6.00;;
19095;SDS011;9680;52.520;13.332;2023-11-21T02:46:13;16.60;;;6.17;;
19095;SDS011;9680;52.520;13.332;2023-11-21T02:48:39;16.60;;;5.97;;
19095;SDS011;9680;52.520;13.332;2023-11-21T02:51:06;14.90;;;5.80;;
19095;SDS011;9680;52.520;13.332;2023-11-21T02:53:33;14.57;;;5.93;;
19095;SDS011;9680;52.520;13.332;2023-11-21T02:56:01;15.30;;;6.20;;
19095;SDS011;9680;52.520;13.332;2023-11-21T02:58:29;16.17;;;6.60;;
19095;SDS011;9680;52.520;13.332;2023-11-21T03:00:56;14.33;;;5.73;;
19095;SDS011;9680;52.520;13.332;2023-11-21T03:03:23;13.77;;;6.37;;
19095;SDS011;9680;52.520;13.332;2023-11-21T03:05:50;12.20;;;5.90;;
19095;SDS011;9680;52.520;13.332;2023-11-21T03:08:18;11.60;;;5.70;;
19095;SDS011;9680;52.520;13.332;2023-11-21T03:10:45;13.73;;;6.50;;
19095;SDS011;9680;52.520;13.332;2023-11-21T03:13:12;14.97;;;5.97;;
19095;SDS011;9680;52.520;13.332;2023-11-21T03:15:40;12.97;;;5.77;;
19095;SDS011;9680;52.520;13.332;2023-11-21T03:18:07;12.93;;;6.13;;
19095;SDS011;9680;52.520;13.332;2023-11-21T03:20:34;13.63;;;5.73;;
19095;SDS011;9680;52.520;13.332;2023-11-21T03:23:01;13.33;;;5.90;;
19095;SDS011;9680;52.520;13.332;2023-11-21T03:25:28;15.27;;;6.77;;
19095;SDS011;9680;52.520;13.332;2023-11-21T03:27:56;12.13;;;5.90;;
19095;SDS011;9680;52.520;13.332;2023-11-21T03:30:23;14.53;;;6.23;;
19095;SDS011;9680;52.520;13.332;2023-11-21T03:32:51;14.30;;;6.20;;
19095;SDS011;9680;52.520;13.332;2023-11-21T03:35:18;12.20;;;5.97;;
19095;SDS011;9680;52.520;13.332;2023-11-21T03:37:46;11.37;;;5.93;;
19095;SDS011;9680;52.520;13.332;2023-11-21T03:40:13;15.23;;;6.20;;
19095;SDS011;9680;52.520;13.332;2023-11-21T03:42:39;13.50;;;6.47;;
19095;SDS011;9680;52.520;13.332;2023-11-21T03:45:07;15.33;;;6.90;;
19095;SDS011;9680;52.520;13.332;2023-11-21T03:47:35;12.17;;;5.97;;
19095;SDS011;9680;52.520;13.332;2023-11-21T03:50:03;18.03;;;6.83;;
19095;SDS011;9680;52.520;13.332;2023-11-21T03:52:30;13.37;;;5.63;;
19095;SDS011;9680;52.520;13.332;2023-11-21T03:54:59;13.53;;;5.90;;
19095;SDS011;9680;52.520;13.332;2023-11-21T03:57:26;15.37;;;6.63;;
19095;SDS011;9680;52.520;13.332;2023-11-21T03:59:54;14.13;;;6.37;;
19095;SDS011;9680;52.520;13.332;2023-11-21T04:02:21;14.33;;;6.00;;
19095;SDS011;9680;52.520;13.332;2023-11-21T04:04:47;13.27;;;6.13;;
19095;SDS011;9680;52.520;13.332;2023-11-21T04:07:15;16.27;;;6.70;;
19095;SDS011;9680;52.520;13.332;2023-11-21T04:09:42;13.93;;;6.13;;
19095;SDS011;9680;52.520;13.332;2023-11-21T04:12:09;14.27;;;6.67;;
19095;SDS011;9680;52.520;13.332;2023-11-21T04:14:36;19.10;;;7.23;;
19095;SDS011;9680;52.520;13.332;2023-11-21T04:17:03;15.60;;;6.37;;
19095;SDS011;9680;52.520;13.332;2023-11-21T04:19:30;15.97;;;6.73;;
19095;SDS011;9680;52.520;13.332;2023-11-21T04:21:57;16.73;;;7.00;;
19095;SDS011;9680;52.520;13.332;2023-11-21T04:24:25;15.23;;;6.77;;
19095;SDS011;9680;52.520;13.332;2023-11-21T04:26:52;15.47;;;7.10;;
19095;SDS011;9680;52.520;13.332;2023-11-21T04:29:18;14.77;;;6.20;;
19095;SDS011;9680;52.520;13.332;2023-11-21T04:31:45;14.23;;;6.60;;
19095;SDS011;9680;52.520;13.332;2023-11-21T04:34:14;15.57;;;6.63;;
19095;SDS011;9680;52.520;13.332;2023-11-21T04:36:41;14.50;;;6.73;;
19095;SDS011;9680;52.520;13.332;2023-11-21T04:39:07;14.80;;;6.33;;
19095;SDS011;9680;52.520;13.332;2023-11-21T04:41:35;15.93;;;6.60;;
19095;SDS011;9680;52.520;13.332;2023-11-21T04:44:04;14.07;;;6.37;;
19095;SDS011;9680;52.520;13.332;2023-11-21T04:46:31;15.13;;;6.17;;
19095;SDS011;9680;52.520;13.332;2023-11-21T04:48:58;14.33;;;6.27;;
19095;SDS011;9680;52.520;13.332;2023-11-21T04:51:25;16.07;;;6.97;;
19095;SDS011;9680;52.520;13.332;2023-11-21T04:53:52;15.40;;;7.00;;
19095;SDS011;9680;52.520;13.332;2023-11-21T04:56:19;18.23;;;7.37;;
19095;SDS011;9680;52.520;13.332;2023-11-21T04:58:47;19.10;;;6.63;;
19095;SDS011;9680;52.520;13.332;2023-11-21T05:01:14;15.03;;;6.30;;
19095;SDS011;9680;52.520;13.332;2023-11-21T05:03:41;14.93;;;6.17;;
19095;SDS011;9680;52.520;13.332;2023-11-21T05:06:09;13.50;;;5.87;;
19095;SDS011;9680;52.520;13.332;2023-11-21T05:08:36;13.27;;;5.73;;
19095;SDS011;9680;52.520;13.332;2023-11-21T05:11:03;13.03;;;5.73;;
19095;SDS011;9680;52.520;13.332;2023-11-21T05:13:33;12.30;;;5.03;;
19095;SDS011;9680;52.520;13.332;2023-11-21T05:16:01;11.47;;;5.63;;
19095;SDS011;9680;52.520;13.332;2023-11-21T05:18:30;13.20;;;5.33;;
19095;SDS011;9680;52.520;13.332;2023-11-21T05:20:57;15.30;;;5.60;;
19095;SDS011;9680;52.520;13.332;2023-11-21T05:23:24;15.83;;;6.33;;
19095;SDS011;9680;52.520;13.332;2023-11-21T05:25:51;11.97;;;5.60;;
19095;SDS011;9680;52.520;13.332;2023-11-21T05:28:18;14.57;;;5.53;;
19095;SDS011;9680;52.520;13.332;2023-11-21T05:30:44;15.17;;;5.30;;
19095;SDS011;9680;52.520;13.332;2023-11-21T05:33:13;13.53;;;5.40;;
19095;SDS011;9680;52.520;13.332;2023-11-21T05:35:39;11.37;;;5.33;;
19095;SDS011;9680;52.520;13.332;2023-11-21T05:38:06;12.57;;;5.70;;
19095;SDS011;9680;52.520;13.332;2023-11-21T05:40:33;11.53;;;5.23;;
19095;SDS011;9680;52.520;13.332;2023-11-21T05:43:00;14.03;;;5.60;;
19095;SDS011;9680;52.520;13.332;2023-11-21T05:45:27;14.10;;;5.53;;
19095;SDS011;9680;52.520;13.332;2023-11-21T05:47:54;9.37;;;4.77;;
19095;SDS011;9680;52.520;13.332;2023-11-21T05:50:22;11.63;;;5.03;;
19095;SDS011;9680;52.520;13.332;2023-11-21T05:52:49;14.23;;;6.07;;
19095;SDS011;9680;52.520;13.332;2023-11-21T05:55:15;14.47;;;5.93;;
19095;SDS011;9680;52.520;13.332;2023-11-21T05:57:43;17.43;;;6.57;;
19095;SDS011;9680;52.520;13.332;2023-11-21T06:00:11;14.23;;;5.50;;
19095;SDS011;9680;52.520;13.332;2023-11-21T06:02:43;12.33;;;5.50;;
19095;SDS011;9680;52.520;13.332;2023-11-21T06:05:11;12.53;;;5.43;;
19095;SDS011;9680;52.520;13.332;2023-11-21T06:07:39;11.50;;;5.30;;
19095;SDS011;9680;52.520;13.332;2023-11-21T06:10:07;13.90;;;5.30;;
19095;SDS011;9680;52.520;13.332;2023-11-21T06:12:35;13.23;;;5.07;;
19095;SDS011;9680;52.520;13.332;2023-11-21T06:15:02;11.50;;;4.70;;
19095;SDS011;9680;52.520;13.332;2023-11-21T06:17:31;11.13;;;5.10;;
19095;SDS011;9680;52.520;13.332;2023-11-21T06:19:57;9.90;;;4.53;;
19095;SDS011;9680;52.520;13.332;2023-11-21T06:22:26;11.93;;;4.97;;
19095;SDS011;9680;52.520;13.332;2023-11-21T06:24:54;10.53;;;4.77;;
19095;SDS011;9680;52.520;13.332;2023-11-21T06:27:20;12.70;;;4.33;;
19095;SDS011;9680;52.520;13.332;2023-11-21T06:29:49;11.60;;;5.20;;
19095;SDS011;9680;52.520;13.332;2023-11-21T06:32:17;10.37;;;4.77;;
19095;SDS011;9680;52.520;13.332;2023-11-21T06:34:45;10.57;;;4.10;;
19095;SDS011;9680;52.520;13.332;2023-11-21T06:37:12;10.23;;;4.40;;
19095;SDS011;9680;52.520;13.332;2023-11-21T06:39:39;10.00;;;4.10;;
19095;SDS011;9680;52.520;13.332;2023-11-21T06:42:07;10.60;;;3.80;;
19095;SDS011;9680;52.520;13.332;2023-11-21T06:44:34;8.43;;;3.83;;
19095;SDS011;9680;52.520;13.332;2023-11-21T06:47:02;9.80;;;3.80;;
19095;SDS011;9680;52.520;13.332;2023-11-21T06:49:29;7.60;;;3.80;;
19095;SDS011;9680;52.520;13.332;2023-11-21T06:51:56;11.50;;;4.03;;
19095;SDS011;9680;52.520;13.332;2023-11-21T06:54:23;11.03;;;4.93;;
19095;SDS011;9680;52.520;13.332;2023-11-21T06:56:50;7.63;;;3.30;;
19095;SDS011;9680;52.520;13.332;2023-11-21T06:59:19;8.93;;;4.30;;
19095;SDS011;9680;52.520;13.332;2023-11-21T07:01:46;13.63;;;4.53;;
19095;SDS011;9680;52.520;13.332;2023-11-21T07:04:14;10.83;;;4.23;;
19095;SDS011;9680;52.520;13.332;2023-11-21T07:06:41;10.57;;;4.53;;
19095;SDS011;9680;52.520;13.332;2023-11-21T07:09:08;8.43;;;3.83;;
19095;SDS011;9680;52.520;13.332;2023-11-21T07:11:36;10.27;;;4.30;;
19095;SDS011;9680;52.520;13.332;2023-11-21T07:14:04;10.13;;;4.00;;
19095;SDS011;9680;52.520;13.332;2023-11-21T07:16:34;10.23;;;4.00;;
19095;SDS011;9680;52.520;13.332;2023-11-21T07:19:02;7.97;;;4.57;;
19095;SDS011;9680;52.520;13.332;2023-11-21T07:21:31;9.80;;;3.93;;
19095;SDS011;9680;52.520;13.332;2023-11-21T07:23:58;8.03;;;3.50;;
19095;SDS011;9680;52.520;13.332;2023-11-21T07:26:25;9.00;;;4.17;;
19095;SDS011;9680;52.520;13.332;2023-11-21T07:28:51;7.40;;;3.37;;
19095;SDS011;9680;52.520;13.332;2023-11-21T07:31:18;8.00;;;3.90;;
19095;SDS011;9680;52.520;13.332;2023-11-21T07:33:47;6.07;;;3.03;;
19095;SDS011;9680;52.520;13.332;2023-11-21T07:36:14;5.73;;;2.50;;
19095;SDS011;9680;52.520;13.332;2023-11-21T07:38:43;7.37;;;3.67;;
19095;SDS011;9680;52.520;13.332;2023-11-21T07:41:10;11.33;;;3.57;;
19095;SDS011;9680;52.520;13.332;2023-11-21T07:43:40;8.70;;;3.43;;
19095;SDS011;9680;52.520;13.332;2023-11-21T07:46:07;6.40;;;2.87;;
19095;SDS011;9680;52.520;13.332;2023-11-21T07:48:35;6.80;;;3.03;;
19095;SDS011;9680;52.520;13.332;2023-11-21T07:51:03;6.40;;;3.30;;
19095;SDS011;9680;52.520;13.332;2023-11-21T07:53:30;8.00;;;2.87;;
19095;SDS011;9680;52.520;13.332;2023-11-21T07:55:57;8.87;;;3.77;;
19095;SDS011;9680;52.520;13.332;2023-11-21T07:58:24;8.80;;;3.93;;
19095;SDS011;9680;52.520;13.332;2023-11-21T08:00:51;8.97;;;3.90;;
19095;SDS011;9680;52.520;13.332;2023-11-21T08:03:18;8.97;;;4.17;;
19095;SDS011;9680;52.520;13.332;2023-11-21T08:05:44;9.10;;;4.40;;
19095;SDS011;9680;52.520;13.332;2023-11-21T08:08:13;6.83;;;3.10;;
19095;SDS011;9680;52.520;13.332;2023-11-21T08:10:40;12.43;;;4.60;;
19095;SDS011;9680;52.520;13.332;2023-11-21T08:13:07;10.50;;;3.70;;
19095;SDS011;9680;52.520;13.332;2023-11-21T08:15:34;11.37;;;4.77;;
19095;SDS011;9680;52.520;13.332;2023-11-21T08:18:02;9.93;;;4.33;;
19095;SDS011;9680;52.520;13.332;2023-11-21T08:20:29;8.93;;;3.70;;
19095;SDS011;9680;52.520;13.332;2023-11-21T08:22:56;10.63;;;4.70;;
19095;SDS011;9680;52.520;13.332;2023-11-21T08:25:25;10.80;;;4.27;;
19095;SDS011;9680;52.520;13.332;2023-11-21T08:27:52;12.13;;;4.20;;
19095;SDS011;9680;52.520;13.332;2023-11-21T08:30:19;10.80;;;4.70;;
19095;SDS011;9680;52.520;13.332;2023-11-21T08:32:46;9.47;;;4.10;;
19095;SDS011;9680;52.520;13.332;2023-11-21T08:35:12;8.77;;;4.30;;
19095;SDS011;9680;52.520;13.332;2023-11-21T08:37:41;8.53;;;3.90;;
19095;SDS011;9680;52.520;13.332;2023-11-21T08:40:08;8.50;;;3.73;;
19095;SDS011;9680;52.520;13.332;2023-11-21T08:42:39;6.87;;;3.50;;
19095;SDS011;9680;52.520;13.332;2023-11-21T08:45:06;8.70;;;3.93;;
19095;SDS011;9680;52.520;13.332;2023-11-21T08:47:34;7.43;;;3.70;;
19095;SDS011;9680;52.520;13.332;2023-11-21T08:50:01;8.93;;;3.97;;
19095;SDS011;9680;52.520;13.332;2023-11-21T08:52:28;7.67;;;3.63;;
19095;SDS011;9680;52.520;13.332;2023-11-21T08:54:55;7.87;;;3.80;;
19095;SDS011;9680;52.520;13.332;2023-11-21T08:57:22;8.73;;;3.57;;
19095;SDS011;9680;52.520;13.332;2023-11-21T08:59:50;8.97;;;3.47;;
19095;SDS011;9680;52.520;13.332;2023-11-21T09:02:20;6.53;;;3.13;;
19095;SDS011;9680;52.520;13.332;2023-11-21T09:04:48;8.03;;;3.73;;
19095;SDS011;9680;52.520;13.332;2023-11-21T09:07:16;9.10;;;3.43;;
19095;SDS011;9680;52.520;13.332;2023-11-21T09:09:44;8.83;;;3.97;;
19095;SDS011;9680;52.520;13.332;2023-11-21T09:12:10;8.67;;;3.67;;
19095;SDS011;9680;52.520;13.332;2023-11-21T09:14:37;10.67;;;3.60;;
19095;SDS011;9680;52.520;13.332;2023-11-21T09:17:05;7.83;;;3.47;;
19095;SDS011;9680;52.520;13.332;2023-11-21T09:19:36;11.50;;;3.60;;
19095;SDS011;9680;52.520;13.332;2023-11-21T09:22:02;7.80;;;3.27;;
19095;SDS011;9680;52.520;13.332;2023-11-21T09:24:30;9.20;;;3.50;;
19095;SDS011;9680;52.520;13.332;2023-11-21T09:26:57;7.93;;;3.33;;
19095;SDS011;9680;52.520;13.332;2023-11-21T09:29:25;11.47;;;3.63;;
19095;SDS011;9680;52.520;13.332;2023-11-21T09:31:51;10.20;;;3.40;;
19095;SDS011;9680;52.520;13.332;2023-11-21T09:34:21;14.50;;;3.70;;
19095;SDS011;9680;52.520;13.332;2023-11-21T09:36:48;10.27;;;3.73;;
19095;SDS011;9680;52.520;13.332;2023-11-21T09:39:15;12.57;;;4.07;;
19095;SDS011;9680;52.520;13.332;2023-11-21T09:41:44;11.67;;;4.00;;
19095;SDS011;9680;52.520;13.332;2023-11-21T09:44:26;8.53;;;3.57;;
19095;SDS011;9680;52.520;13.332;2023-11-21T09:47:00;14.97;;;4.20;;
19095;SDS011;9680;52.520;13.332;2023-11-21T09:49:30;12.90;;;4.20;;
19095;SDS011;9680;52.520;13.332;2023-11-21T09:51:59;15.87;;;4.57;;
19095;SDS011;9680;52.520;13.332;2023-11-21T09:54:29;15.57;;;4.10;;
19095;SDS011;9680;52.520;13.332;2023-11-21T09:56:57;14.20;;;4.77;;
19095;SDS011;9680;52.520;13.332;2023-11-21T09:59:30;14.07;;;4.73;;
19095;SDS011;9680;52.520;13.332;2023-11-21T10:01:59;12.10;;;4.43;;
19095;SDS011;9680;52.520;13.332;2023-11-21T10:04:26;18.00;;;6.00;;
19095;SDS011;9680;52.520;13.332;2023-11-21T10:06:55;17.93;;;5.40;;
19095;SDS011;9680;52.520;13.332;2023-11-21T10:09:23;19.97;;;5.50;;
19095;SDS011;9680;52.520;13.332;2023-11-21T10:11:52;19.33;;;5.33;;
19095;SDS011;9680;52.520;13.332;2023-11-21T10:14:19;13.50;;;4.57;;
19095;SDS011;9680;52.520;13.332;2023-11-21T10:16:54;17.53;;;5.20;;
19095;SDS011;9680;52.520;13.332;2023-11-21T10:19:22;15.73;;;4.83;;
19095;SDS011;9680;52.520;13.332;2023-11-21T10:21:51;17.30;;;4.83;;
19095;SDS011;9680;52.520;13.332;2023-11-21T10:24:19;14.13;;;4.70;;
19095;SDS011;9680;52.520;13.332;2023-11-21T10:26:46;17.13;;;4.77;;
19095;SDS011;9680;52.520;13.332;2023-11-21T10:29:14;15.23;;;4.67;;
19095;SDS011;9680;52.520;13.332;2023-11-21T10:31:42;12.83;;;4.47;;
19095;SDS011;9680;52.520;13.332;2023-11-21T10:34:13;11.10;;;4.00;;
19095;SDS011;9680;52.520;13.332;2023-11-21T10:36:40;13.27;;;5.07;;
19095;SDS011;9680;52.520;13.332;2023-11-21T10:39:07;11.47;;;4.23;;
19095;SDS011;9680;52.520;13.332;2023-11-21T10:41:36;10.97;;;4.20;;
19095;SDS011;9680;52.520;13.332;2023-11-21T10:44:05;10.47;;;3.93;;
19095;SDS011;9680;52.520;13.332;2023-11-21T10:46:34;11.47;;;4.10;;
19095;SDS011;9680;52.520;13.332;2023-11-21T10:49:01;11.13;;;3.50;;
19095;SDS011;9680;52.520;13.332;2023-11-21T10:51:27;9.23;;;3.67;;
19095;SDS011;9680;52.520;13.332;2023-11-21T10:53:54;11.50;;;3.63;;
19095;SDS011;9680;52.520;13.332;2023-11-21T10:56:23;10.60;;;4.10;;
19095;SDS011;9680;52.520;13.332;2023-11-21T10:58:51;9.03;;;3.90;;
19095;SDS011;9680;52.520;13.332;2023-11-21T11:01:19;9.20;;;3.77;;
19095;SDS011;9680;52.520;13.332;2023-11-21T11:03:47;10.07;;;3.67;;
19095;SDS011;9680;52.520;13.332;2023-11-21T11:06:14;8.30;;;4.10;;
19095;SDS011;9680;52.520;13.332;2023-11-21T11:08:42;16.77;;;4.10;;
19095;SDS011;9680;52.520;13.332;2023-11-21T11:11:10;7.87;;;3.13;;
19095;SDS011;9680;52.520;13.332;2023-11-21T11:13:39;8.20;;;3.10;;
19095;SDS011;9680;52.520;13.332;2023-11-21T11:16:12;6.30;;;2.73;;
19095;SDS011;9680;52.520;13.332;2023-11-21T11:18:42;9.43;;;3.20;;
19095;SDS011;9680;52.520;13.332;2023-11-21T11:21:11;7.57;;;2.97;;
19095;SDS011;9680;52.520;13.332;2023-11-21T11:23:54;7.53;;;2.87;;
19095;SDS011;9680;52.520;13.332;2023-11-21T11:26:42;5.87;;;2.37;;
19095;SDS011;9680;52.520;13.332;2023-11-21T11:29:14;6.93;;;2.97;;
19095;SDS011;9680;52.520;13.332;2023-11-21T11:31:53;5.73;;;2.53;;
19095;SDS011;9680;52.520;13.332;2023-11-21T11:34:30;4.50;;;2.40;;
19095;SDS011;9680;52.520;13.332;2023-11-21T11:37:00;6.87;;;2.70;;
19095;SDS011;9680;52.520;13.332;2023-11-21T11:39:29;6.33;;;2.73;;
19095;SDS011;9680;52.520;13.332;2023-11-21T11:41:57;6.47;;;2.87;;
19095;SDS011;9680;52.520;13.332;2023-11-21T11:44:46;6.10;;;2.80;;
19095;SDS011;9680;52.520;13.332;2023-11-21T11:47:19;6.17;;;2.37;;
19095;SDS011;9680;52.520;13.332;2023-11-21T11:49:57;5.90;;;2.63;;
19095;SDS011;9680;52.520;13.332;2023-11-21T11:52:32;5.53;;;2.60;;
19095;SDS011;9680;52.520;13.332;2023-11-21T11:55:05;5.37;;;2.50;;
19095;SDS011;9680;52.520;13.332;2023-11-21T11:57:35;5.20;;;2.53;;
19095;SDS011;9680;52.520;13.332;2023-11-21T12:00:13;4.43;;;2.30;;
19095;SDS011;9680;52.520;13.332;2023-11-21T12:02:47;10.70;;;3.70;;
19095;SDS011;9680;52.520;13.332;2023-11-21T12:05:15;5.00;;;2.63;;
19095;SDS011;9680;52.520;13.332;2023-11-21T12:07:44;6.37;;;2.90;;
19095;SDS011;9680;52.520;13.332;2023-11-21T12:10:15;5.82;;;2.67;;
19095;SDS011;9680;52.520;13.332;2023-11-21T12:12:43;6.30;;;2.97;;
19095;SDS011;9680;52.520;13.332;2023-11-21T12:15:11;6.77;;;2.80;;
19095;SDS011;9680;52.520;13.332;2023-11-21T12:17:38;5.67;;;2.90;;
19095;SDS011;9680;52.520;13.332;2023-11-21T12:20:07;5.57;;;2.53;;
19095;SDS011;9680;52.520;13.332;2023-11-21T12:22:41;5.87;;;2.50;;
19095;SDS011;9680;52.520;13.332;2023-11-21T12:25:09;5.17;;;2.77;;
19095;SDS011;9680;52.520;13.332;2023-11-21T12:27:41;8.07;;;2.93;;
19095;SDS011;9680;52.520;13.332;2023-11-21T12:30:09;9.23;;;3.40;;
19095;SDS011;9680;52.520;13.332;2023-11-21T12:32:38;7.13;;;3.40;;
19095;SDS011;9680;52.520;13.332;2023-11-21T12:35:08;10.17;;;3.60;;
19095;SDS011;9680;52.520;13.332;2023-11-21T12:37:36;6.20;;;3.20;;
19095;SDS011;9680;52.520;13.332;2023-11-21T12:40:04;7.13;;;3.30;;
19095;SDS011;9680;52.520;13.332;2023-11-21T12:42:33;7.43;;;3.10;;
19095;SDS011;9680;52.520;13.332;2023-11-21T12:45:10;7.87;;;3.30;;
19095;SDS011;9680;52.520;13.332;2023-11-21T12:47:45;5.77;;;2.63;;
19095;SDS011;9680;52.520;13.332;2023-11-21T12:50:14;8.87;;;4.03;;
19095;SDS011;9680;52.520;13.332;2023-11-21T12:52:42;11.37;;;3.13;;
19095;SDS011;9680;52.520;13.332;2023-11-21T12:55:16;6.80;;;3.20;;
19095;SDS011;9680;52.520;13.332;2023-11-21T12:57:44;6.33;;;3.07;;
19095;SDS011;9680;52.520;13.332;2023-11-21T13:00:12;8.40;;;3.23;;
19095;SDS011;9680;52.520;13.332;2023-11-21T13:02:52;6.17;;;3.20;;
19095;SDS011;9680;52.520;13.332;2023-11-21T13:05:25;7.40;;;3.43;;
19095;SDS011;9680;52.520;13.332;2023-11-21T13:07:53;6.23;;;2.87;;
19095;SDS011;9680;52.520;13.332;2023-11-21T13:10:22;9.70;;;4.07;;
19095;SDS011;9680;52.520;13.332;2023-11-21T13:12:54;8.27;;;3.83;;
19095;SDS011;9680;52.520;13.332;2023-11-21T13:15:25;10.80;;;3.73;;
19095;SDS011;9680;52.520;13.332;2023-11-21T13:17:53;9.73;;;4.23;;
19095;SDS011;9680;52.520;13.332;2023-11-21T13:20:22;10.63;;;4.50;;
19095;SDS011;9680;52.520;13.332;2023-11-21T13:22:51;13.43;;;5.07;;
19095;SDS011;9680;52.520;13.332;2023-11-21T13:25:22;14.03;;;5.23;;
19095;SDS011;9680;52.520;13.332;2023-11-21T13:27:49;10.67;;;4.43;;
19095;SDS011;9680;52.520;13.332;2023-11-21T13:30:16;14.03;;;5.27;;
19095;SDS011;9680;52.520;13.332;2023-11-21T13:32:48;17.60;;;5.83;;
19095;SDS011;9680;52.520;13.332;2023-11-21T13:35:16;11.70;;;4.60;;
19095;SDS011;9680;52.520;13.332;2023-11-21T13:37:47;12.63;;;5.57;;
19095;SDS011;9680;52.520;13.332;2023-11-21T13:40:20;15.10;;;5.67;;
19095;SDS011;9680;52.520;13.332;2023-11-21T13:42:51;16.47;;;5.90;;
19095;SDS011;9680;52.520;13.332;2023-11-21T13:45:20;15.00;;;6.00;;
19095;SDS011;9680;52.520;13.332;2023-11-21T13:47:48;12.37;;;5.03;;
19095;SDS011;9680;52.520;13.332;2023-11-21T13:50:17;13.63;;;5.10;;
19095;SDS011;9680;52.520;13.332;2023-11-21T13:52:48;14.20;;;5.43;;
19095;SDS011;9680;52.520;13.332;2023-11-21T13:55:16;16.23;;;5.67;;
19095;SDS011;9680;52.520;13.332;2023-11-21T13:57:44;19.00;;;6.83;;
19095;SDS011;9680;52.520;13.332;2023-11-21T14:00:15;16.90;;;6.37;;
19095;SDS011;9680;52.520;13.332;2023-11-21T14:03:06;22.83;;;8.13;;
19095;SDS011;9680;52.520;13.332;2023-11-21T14:05:41;20.17;;;7.93;;
19095;SDS011;9680;52.520;13.332;2023-11-21T14:08:08;21.67;;;7.70;;
19095;SDS011;9680;52.520;13.332;2023-11-21T14:10:37;26.90;;;8.43;;
19095;SDS011;9680;52.520;13.332;2023-11-21T14:13:09;21.93;;;7.00;;
19095;SDS011;9680;52.520;13.332;2023-11-21T14:15:38;33.43;;;9.43;;
19095;SDS011;9680;52.520;13.332;2023-11-21T14:18:08;28.90;;;9.53;;
19095;SDS011;9680;52.520;13.332;2023-11-21T14:20:37;22.90;;;8.47;;
19095;SDS011;9680;52.520;13.332;2023-11-21T14:23:05;19.23;;;7.80;;
19095;SDS011;9680;52.520;13.332;2023-11-21T14:25:32;18.93;;;7.40;;
19095;SDS011;9680;52.520;13.332;2023-11-21T14:28:02;23.97;;;8.33;;
19095;SDS011;9680;52.520;13.332;2023-11-21T14:30:32;21.20;;;8.60;;
19095;SDS011;9680;52.520;13.332;2023-11-21T14:33:01;24.20;;;9.07;;
19095;SDS011;9680;52.520;13.332;2023-11-21T14:35:28;22.27;;;8.20;;
19095;SDS011;9680;52.520;13.332;2023-11-21T14:37:57;20.40;;;7.97;;
19095;SDS011;9680;52.520;13.332;2023-11-21T14:40:25;20.70;;;8.40;;
19095;SDS011;9680;52.520;13.332;2023-11-21T14:42:58;21.13;;;8.87;;
19095;SDS011;9680;52.520;13.332;2023-11-21T14:45:25;18.37;;;7.87;;